createdAt,value
2022-09-10T00:01:31.989Z,99.90
2022-09-10T00:04:01.042Z,99.90
2022-09-10T00:06:34.385Z,99.90
2022-09-10T00:09:04.168Z,99.90
2022-09-10T00:11:32.541Z,99.90
2022-09-10T00:14:01.686Z,99.90
2022-09-10T00:16:30.970Z,99.90
2022-09-10T00:18:59.179Z,99.90
2022-09-10T00:21:27.334Z,99.90
2022-09-10T00:23:57.176Z,99.90
2022-09-10T00:26:26.777Z,99.90
2022-09-10T00:28:58.429Z,99.90
2022-09-10T00:31:27.511Z,99.90
2022-09-10T00:33:56.141Z,99.90
2022-09-10T00:36:26.060Z,99.90
2022-09-10T00:38:57.818Z,99.90
2022-09-10T00:41:26.539Z,99.90
2022-09-10T00:43:56.978Z,99.90
2022-09-10T00:46:34.594Z,99.90
2022-09-10T00:49:06.832Z,99.90
2022-09-10T00:51:37.636Z,99.90
2022-09-10T00:54:07.761Z,99.90
2022-09-10T00:56:35.860Z,99.90
2022-09-10T00:59:05.956Z,99.90
2022-09-10T01:01:35.239Z,99.90
2022-09-10T01:04:05.238Z,99.90
2022-09-10T01:06:33.650Z,99.90
2022-09-10T01:09:03.087Z,99.90
2022-09-10T01:11:58.718Z,99.90
2022-09-10T01:14:43.748Z,99.90
2022-09-10T01:17:19.345Z,99.90
2022-09-10T01:20:16.779Z,99.90
2022-09-10T01:23:17.641Z,99.90
2022-09-10T01:25:57.282Z,99.90
2022-09-10T01:28:32.423Z,99.90
2022-09-10T01:31:05.593Z,99.90
2022-09-10T01:33:38.965Z,99.90
2022-09-10T01:36:13.285Z,99.90
2022-09-10T01:38:42.737Z,99.90
2022-09-10T01:41:13.923Z,99.90
2022-09-10T01:43:45.188Z,99.90
2022-09-10T01:46:34.840Z,99.90
2022-09-10T01:49:15.848Z,99.90
2022-09-10T01:51:58.089Z,99.90
2022-09-10T01:54:39.818Z,99.90
2022-09-10T01:57:16.806Z,99.90
2022-09-10T01:59:56.527Z,99.90
2022-09-10T02:02:30.103Z,99.90
2022-09-10T02:04:59.346Z,99.90
2022-09-10T02:07:29.101Z,99.90
2022-09-10T02:09:57.769Z,99.90
2022-09-10T02:12:28.809Z,99.90
2022-09-10T02:15:09.942Z,99.90
2022-09-10T02:17:50.243Z,99.90
2022-09-10T02:20:19.471Z,99.90
2022-09-10T02:22:53.053Z,99.90
2022-09-10T02:25:21.205Z,99.90
2022-09-10T02:27:49.403Z,99.90
2022-09-10T02:30:20.226Z,99.90
2022-09-10T02:32:49.680Z,99.90
2022-09-10T02:35:18.016Z,99.90
2022-09-10T02:37:50.591Z,99.90
2022-09-10T02:40:19.553Z,99.90
2022-09-10T02:42:47.885Z,99.90
2022-09-10T02:45:22.075Z,99.90
2022-09-10T02:47:51.218Z,99.90
2022-09-10T02:50:19.866Z,99.90
2022-09-10T02:52:48.900Z,99.90
2022-09-10T02:55:17.174Z,99.90
2022-09-10T02:57:45.513Z,99.90
2022-09-10T03:00:14.201Z,99.90
2022-09-10T03:02:43.670Z,99.90
2022-09-10T03:05:13.977Z,99.90
2022-09-10T03:07:43.129Z,99.90
2022-09-10T03:10:11.877Z,99.90
2022-09-10T03:12:40.788Z,99.90
2022-09-10T03:15:10.199Z,99.90
2022-09-10T03:17:38.468Z,99.90
2022-09-10T03:20:09.347Z,99.90
2022-09-10T03:22:38.319Z,99.90
2022-09-10T03:25:08.104Z,99.90
2022-09-10T03:27:37.484Z,99.90
2022-09-10T03:30:09.944Z,99.90
2022-09-10T03:32:38.367Z,99.90
2022-09-10T03:35:11.143Z,99.90
2022-09-10T03:37:39.796Z,99.90
2022-09-10T03:40:09.796Z,99.90
2022-09-10T03:42:38.694Z,99.90
2022-09-10T03:45:08.041Z,99.90
2022-09-10T03:47:37.684Z,99.90
2022-09-10T03:50:06.847Z,99.90
2022-09-10T03:52:36.608Z,99.90
2022-09-10T03:55:05.441Z,99.90
2022-09-10T03:57:34.438Z,99.90
2022-09-10T04:00:02.687Z,99.90
2022-09-10T04:02:31.691Z,99.90
2022-09-10T04:04:59.914Z,99.90
2022-09-10T04:07:28.195Z,99.90
2022-09-10T04:09:58.251Z,99.90
2022-09-10T04:12:27.139Z,99.90
2022-09-10T04:14:57.697Z,99.90
2022-09-10T04:17:28.929Z,99.90
2022-09-10T04:19:59.511Z,99.90
2022-09-10T04:22:31.310Z,99.90
2022-09-10T04:25:04.781Z,99.90
2022-09-10T04:27:37.208Z,99.90
2022-09-10T04:30:08.182Z,99.90
2022-09-10T04:32:39.027Z,99.90
2022-09-10T04:35:10.146Z,99.90
2022-09-10T04:37:41.132Z,99.90
2022-09-10T04:40:16.022Z,99.90
2022-09-10T04:42:46.534Z,99.90
2022-09-10T04:45:16.292Z,99.90
2022-09-10T04:47:46.958Z,99.90
2022-09-10T04:50:16.971Z,99.90
2022-09-10T04:53:08.209Z,99.90
2022-09-10T04:55:41.785Z,99.90
2022-09-10T04:58:10.288Z,99.90
2022-09-10T05:00:39.368Z,99.90
2022-09-10T05:03:08.477Z,99.90
2022-09-10T05:05:38.279Z,99.90
2022-09-10T05:08:07.989Z,99.90
2022-09-10T05:10:38.265Z,99.90
2022-09-10T05:13:08.916Z,99.90
2022-09-10T05:15:40.636Z,99.90
2022-09-10T05:18:09.828Z,99.90
2022-09-10T05:20:39.688Z,99.90
2022-09-10T05:23:07.931Z,99.90
2022-09-10T05:25:36.362Z,99.90
2022-09-10T05:28:06.428Z,99.90
2022-09-10T05:30:34.547Z,99.90
2022-09-10T05:33:03.348Z,99.90
2022-09-10T05:35:34.825Z,99.90
2022-09-10T05:38:03.316Z,99.90
2022-09-10T05:40:36.092Z,99.90
2022-09-10T05:43:05.635Z,99.90
2022-09-10T05:45:33.932Z,99.90
2022-09-10T05:48:03.702Z,99.90
2022-09-10T05:50:31.876Z,99.90
2022-09-10T05:53:01.145Z,99.90
2022-09-10T05:55:31.339Z,99.90
2022-09-10T05:57:59.682Z,99.90
2022-09-10T06:00:29.269Z,99.90
2022-09-10T06:03:00.799Z,99.90
2022-09-10T06:05:33.568Z,99.90
2022-09-10T06:08:08.382Z,99.90
2022-09-10T06:10:39.311Z,99.90
2022-09-10T06:13:07.495Z,99.90
2022-09-10T06:15:38.117Z,99.90
2022-09-10T06:18:06.472Z,99.90
2022-09-10T06:20:34.811Z,99.90
2022-09-10T06:23:03.620Z,99.90
2022-09-10T06:25:32.606Z,99.90
2022-09-10T06:28:02.267Z,99.90
2022-09-10T06:30:30.814Z,99.90
2022-09-10T06:33:01.221Z,99.90
2022-09-10T06:35:29.609Z,99.90
2022-09-10T06:37:59.149Z,99.90
2022-09-10T06:40:28.715Z,99.90
2022-09-10T06:42:57.007Z,99.90
2022-09-10T06:45:57.684Z,99.90
2022-09-10T06:48:49.187Z,99.90
2022-09-10T06:51:19.657Z,99.90
2022-09-10T06:53:47.876Z,99.90
2022-09-10T06:56:21.132Z,99.90
2022-09-10T06:58:50.468Z,99.90
2022-09-10T07:01:20.597Z,99.90
2022-09-10T07:03:57.785Z,99.90
2022-09-10T07:06:28.147Z,99.90
2022-09-10T07:09:01.954Z,99.90
2022-09-10T07:11:39.256Z,99.90
2022-09-10T07:14:12.355Z,99.90
2022-09-10T07:16:41.741Z,99.90
2022-09-10T07:19:13.391Z,99.90
2022-09-10T07:21:44.882Z,99.90
2022-09-10T07:24:15.362Z,99.90
2022-09-10T07:27:04.151Z,99.90
2022-09-10T07:29:33.215Z,99.90
2022-09-10T07:32:03.597Z,99.90
2022-09-10T07:34:34.269Z,99.90
2022-09-10T07:37:03.139Z,99.90
2022-09-10T07:39:31.776Z,99.90
2022-09-10T07:42:00.906Z,99.90
2022-09-10T07:44:31.575Z,99.90
2022-09-10T07:47:03.474Z,99.90
2022-09-10T07:49:34.228Z,99.90
2022-09-10T07:52:05.205Z,99.90
2022-09-10T07:54:42.156Z,99.90
2022-09-10T07:57:11.429Z,99.90
2022-09-10T07:59:39.591Z,99.90
2022-09-10T08:02:10.868Z,99.90
2022-09-10T08:04:40.930Z,99.90
2022-09-10T08:07:12.350Z,99.90
2022-09-10T08:09:43.206Z,99.90
2022-09-10T08:12:16.908Z,99.90
2022-09-10T08:14:46.258Z,99.90
2022-09-10T08:17:15.035Z,99.90
2022-09-10T08:19:47.316Z,99.90
2022-09-10T08:22:16.234Z,99.90
2022-09-10T08:24:55.699Z,99.90
2022-09-10T08:27:26.800Z,99.90
2022-09-10T08:29:57.598Z,99.90
2022-09-10T08:32:25.762Z,99.90
2022-09-10T08:34:56.172Z,99.90
2022-09-10T08:37:25.827Z,99.90
2022-09-10T08:39:55.412Z,99.90
2022-09-10T08:42:33.282Z,99.90
2022-09-10T08:45:07.470Z,99.90
2022-09-10T08:47:44.275Z,99.90
2022-09-10T08:50:23.775Z,99.90
2022-09-10T08:52:59.440Z,99.90
2022-09-10T08:55:33.313Z,99.90
2022-09-10T08:58:11.915Z,99.90
2022-09-10T09:00:44.517Z,99.90
2022-09-10T09:03:22.547Z,99.90
2022-09-10T09:05:56.061Z,99.90
2022-09-10T09:08:34.438Z,99.90
2022-09-10T09:11:16.625Z,99.90
2022-09-10T09:13:59.978Z,99.90
2022-09-10T09:16:45.268Z,99.90
2022-09-10T09:19:20.349Z,99.90
2022-09-10T09:21:54.112Z,99.90
2022-09-10T09:24:32.021Z,99.90
2022-09-10T09:27:09.859Z,99.90
2022-09-10T09:29:44.484Z,99.90
2022-09-10T09:32:17.867Z,99.90
2022-09-10T09:34:50.789Z,99.90
2022-09-10T09:37:27.030Z,99.90
2022-09-10T09:40:08.704Z,99.90
2022-09-10T09:42:45.620Z,99.90
2022-09-10T09:45:24.806Z,99.90
2022-09-10T09:47:54.539Z,99.90
2022-09-10T09:50:23.928Z,99.90
2022-09-10T09:52:56.538Z,99.90
2022-09-10T09:55:33.080Z,99.90
2022-09-10T09:58:30.506Z,99.90
2022-09-10T10:01:16.437Z,99.90
2022-09-10T10:03:58.706Z,99.90
2022-09-10T10:06:29.831Z,99.90
2022-09-10T10:09:06.343Z,99.90
2022-09-10T10:11:46.149Z,99.90
2022-09-10T10:14:36.281Z,99.90
2022-09-10T10:17:21.964Z,99.90
2022-09-10T10:19:59.756Z,99.90
2022-09-10T10:22:31.964Z,99.90
2022-09-10T10:25:05.119Z,99.90
2022-09-10T10:27:36.637Z,99.90
2022-09-10T10:30:22.745Z,99.90
2022-09-10T10:32:55.995Z,99.90
2022-09-10T10:35:32.850Z,99.90
2022-09-10T10:38:25.199Z,99.90
2022-09-10T10:41:09.648Z,99.90
2022-09-10T10:43:47.322Z,99.90
2022-09-10T10:46:20.796Z,99.90
2022-09-10T10:49:03.604Z,99.90
2022-09-10T10:51:44.215Z,99.90
2022-09-10T10:54:33.877Z,99.90
2022-09-10T10:57:13.062Z,99.90
2022-09-10T10:59:54.258Z,99.90
2022-09-10T11:02:33.442Z,99.90
2022-09-10T11:05:06.105Z,99.90
2022-09-10T11:07:40.306Z,99.90
2022-09-10T11:10:17.293Z,99.90
2022-09-10T11:12:50.949Z,99.90
2022-09-10T11:15:30.338Z,99.90
2022-09-10T11:18:06.236Z,99.90
2022-09-10T11:20:41.994Z,99.90
2022-09-10T11:23:20.381Z,99.90
2022-09-10T11:25:56.323Z,99.90
2022-09-10T11:28:31.752Z,99.90
2022-09-10T11:31:05.074Z,99.90
2022-09-10T11:33:40.032Z,99.90
2022-09-10T11:36:15.497Z,99.90
2022-09-10T11:38:53.067Z,99.90
2022-09-10T11:41:25.196Z,99.90
2022-09-10T11:44:05.740Z,99.90
2022-09-10T11:46:41.734Z,99.20
2022-09-10T11:49:17.978Z,99.10
2022-09-10T11:51:47.940Z,98.50
2022-09-10T11:54:18.746Z,99.20
2022-09-10T11:56:54.029Z,99.90
2022-09-10T11:59:42.545Z,99.90
2022-09-10T12:02:49.685Z,99.90
2022-09-10T12:05:27.739Z,99.90
2022-09-10T12:08:04.767Z,99.90
2022-09-10T12:10:39.914Z,99.90
2022-09-10T12:13:10.603Z,99.90
2022-09-10T12:15:40.463Z,99.90
2022-09-10T12:18:15.921Z,99.90
2022-09-10T12:20:50.831Z,99.90
2022-09-10T12:23:25.204Z,99.90
2022-09-10T12:25:59.477Z,99.90
2022-09-10T12:29:00.997Z,99.90
2022-09-10T12:32:08.883Z,99.90
2022-09-10T12:34:38.151Z,99.90
2022-09-10T12:37:23.845Z,99.90
2022-09-10T12:40:25.705Z,99.90
2022-09-10T12:43:00.305Z,99.90
2022-09-10T12:46:03.361Z,99.90
2022-09-10T12:48:35.877Z,99.90
2022-09-10T12:51:12.663Z,99.90
2022-09-10T12:54:10.998Z,99.90
2022-09-10T12:56:59.451Z,99.90
2022-09-10T12:59:55.691Z,99.90
2022-09-10T13:02:31.263Z,98.00
2022-09-10T13:05:06.332Z,95.70
2022-09-10T13:07:41.766Z,94.10
2022-09-10T13:10:22.196Z,92.60
2022-09-10T13:12:53.076Z,92.60
2022-09-10T13:15:24.909Z,92.90
2022-09-10T13:18:24.805Z,93.30
2022-09-10T13:20:54.463Z,94.20
2022-09-10T13:23:48.220Z,94.70
2022-09-10T13:26:53.922Z,94.30
2022-09-10T13:29:33.336Z,93.60
2022-09-10T13:32:09.257Z,93.60
2022-09-10T13:35:06.197Z,92.80
2022-09-10T13:37:56.962Z,93.20
2022-09-10T13:40:58.062Z,94.20
2022-09-10T13:43:40.004Z,95.80
2022-09-10T13:46:12.636Z,97.50
2022-09-10T13:48:47.315Z,98.30
2022-09-10T13:51:23.265Z,99.10
2022-09-10T13:53:53.431Z,99.80
2022-09-10T13:56:25.986Z,99.90
2022-09-10T13:59:00.824Z,99.90
2022-09-10T14:01:50.473Z,99.90
2022-09-10T14:04:23.507Z,99.90
2022-09-10T14:06:51.965Z,99.90
2022-09-10T14:09:21.712Z,99.90
2022-09-10T14:11:50.623Z,99.90
2022-09-10T14:14:21.930Z,99.90
2022-09-10T14:16:53.250Z,99.90
2022-09-10T14:19:25.628Z,99.90
2022-09-10T14:21:55.750Z,99.90
2022-09-10T14:24:31.442Z,99.90
2022-09-10T14:27:16.754Z,99.90
2022-09-10T14:29:45.894Z,99.90
2022-09-10T14:32:30.102Z,99.90
2022-09-10T14:35:02.741Z,99.90
2022-09-10T14:37:38.274Z,99.90
2022-09-10T14:40:18.585Z,99.90
2022-09-10T14:42:48.469Z,99.90
2022-09-10T14:45:39.871Z,99.90
2022-09-10T14:48:31.268Z,99.90
2022-09-10T14:51:14.379Z,99.90
2022-09-10T14:53:43.618Z,99.90
2022-09-10T14:56:21.642Z,99.90
2022-09-10T14:58:56.236Z,99.90
2022-09-10T15:01:24.589Z,99.90
2022-09-10T15:03:52.879Z,99.90
2022-09-10T15:06:25.635Z,99.90
2022-09-10T15:08:56.199Z,99.90
2022-09-10T15:11:28.653Z,99.90
2022-09-10T15:13:59.219Z,99.90
2022-09-10T15:16:27.612Z,99.90
2022-09-10T15:18:55.903Z,99.90
2022-09-10T15:21:24.146Z,99.90
2022-09-10T15:23:52.252Z,99.90
2022-09-10T15:26:20.791Z,99.90
2022-09-10T15:28:50.273Z,99.90
2022-09-10T15:31:19.212Z,99.90
2022-09-10T15:33:47.618Z,99.90
2022-09-10T15:36:15.924Z,99.90
2022-09-10T15:38:44.068Z,99.90
2022-09-10T15:41:14.257Z,99.90
2022-09-10T15:43:43.983Z,99.90
2022-09-10T15:46:14.892Z,99.90
2022-09-10T15:48:43.264Z,99.90
2022-09-10T15:51:15.883Z,99.90
2022-09-10T15:53:46.083Z,99.90
2022-09-10T15:56:15.330Z,99.90
2022-09-10T15:58:49.464Z,99.90
2022-09-10T16:01:19.694Z,99.90
2022-09-10T16:03:50.138Z,99.90
2022-09-10T16:06:19.591Z,99.90
2022-09-10T16:08:50.760Z,99.90
2022-09-10T16:11:19.393Z,99.90
2022-09-10T16:13:47.865Z,99.90
2022-09-10T16:16:20.569Z,99.90
2022-09-10T16:18:51.612Z,99.90
2022-09-10T16:21:22.389Z,99.90
2022-09-10T16:23:52.419Z,99.90
2022-09-10T16:26:23.032Z,99.90
2022-09-10T16:28:51.614Z,99.90
2022-09-10T16:31:23.532Z,99.90
2022-09-10T16:33:54.992Z,99.90
2022-09-10T16:36:25.019Z,99.90
2022-09-10T16:38:54.593Z,99.90
2022-09-10T16:41:23.708Z,99.90
2022-09-10T16:43:52.411Z,99.90
2022-09-10T16:46:22.325Z,99.90
2022-09-10T16:48:53.193Z,99.90
2022-09-10T16:51:24.483Z,99.90
2022-09-10T16:53:57.899Z,99.90
2022-09-10T16:56:27.038Z,99.90
2022-09-10T16:58:55.204Z,99.90
2022-09-10T17:01:24.784Z,99.90
2022-09-10T17:03:53.329Z,99.90
2022-09-10T17:06:24.537Z,99.90
2022-09-10T17:08:54.633Z,99.90
2022-09-10T17:11:26.096Z,99.90
2022-09-10T17:13:57.026Z,99.90
2022-09-10T17:16:30.479Z,99.90
2022-09-10T17:18:59.927Z,99.90
2022-09-10T17:21:29.685Z,99.90
2022-09-10T17:23:58.250Z,99.90
2022-09-10T17:26:26.967Z,99.90
2022-09-10T17:28:56.733Z,99.90
2022-09-10T17:31:27.736Z,99.90
2022-09-10T17:33:58.501Z,99.90
2022-09-10T17:36:27.934Z,99.90
2022-09-10T17:38:58.973Z,99.90
2022-09-10T17:41:28.111Z,99.90
2022-09-10T17:43:56.960Z,99.90
2022-09-10T17:46:27.353Z,99.90
2022-09-10T17:48:56.155Z,99.90
2022-09-10T17:51:25.898Z,99.90
2022-09-10T17:53:55.866Z,99.90
2022-09-10T17:56:25.899Z,99.90
2022-09-10T17:58:58.448Z,99.90
2022-09-10T18:01:29.794Z,99.90
2022-09-10T18:03:58.497Z,99.90
2022-09-10T18:06:29.121Z,99.90
2022-09-10T18:09:01.894Z,99.90
2022-09-10T18:11:32.400Z,99.90
2022-09-10T18:14:01.255Z,99.90
2022-09-10T18:16:33.318Z,99.90
2022-09-10T18:19:03.540Z,99.90
2022-09-10T18:21:33.988Z,99.90
2022-09-10T18:24:04.810Z,99.90
2022-09-10T18:26:34.746Z,99.90
2022-09-10T18:29:06.510Z,99.90
2022-09-10T18:31:38.067Z,99.90
2022-09-10T18:34:07.723Z,99.90
2022-09-10T18:36:35.866Z,99.90
2022-09-10T18:39:05.740Z,99.90
2022-09-10T18:41:36.837Z,99.90
2022-09-10T18:44:08.088Z,99.90
2022-09-10T18:46:37.865Z,99.90
2022-09-10T18:49:06.239Z,99.90
2022-09-10T18:51:34.539Z,99.90
2022-09-10T18:54:04.042Z,99.90
2022-09-10T18:56:33.312Z,99.90
2022-09-10T18:59:04.825Z,99.90
2022-09-10T19:01:34.564Z,99.90
2022-09-10T19:04:07.369Z,99.90
2022-09-10T19:06:39.069Z,99.90
2022-09-10T19:09:09.853Z,99.90
2022-09-10T19:11:40.243Z,99.90
2022-09-10T19:14:14.229Z,99.90
2022-09-10T19:16:42.575Z,99.90
2022-09-10T19:19:15.279Z,99.90
2022-09-10T19:21:43.441Z,99.90
2022-09-10T19:24:11.775Z,99.90
2022-09-10T19:26:40.291Z,99.90
2022-09-10T19:29:08.866Z,99.90
2022-09-10T19:31:37.007Z,99.90
2022-09-10T19:34:07.263Z,99.90
2022-09-10T19:36:37.279Z,99.90
2022-09-10T19:39:07.218Z,99.90
2022-09-10T19:41:36.431Z,99.90
2022-09-10T19:44:04.990Z,99.90
2022-09-10T19:46:34.002Z,99.90
2022-09-10T19:49:02.255Z,99.90
2022-09-10T19:51:32.842Z,99.90
2022-09-10T19:54:06.348Z,99.90
2022-09-10T19:56:36.411Z,99.90
2022-09-10T19:59:08.718Z,99.90
2022-09-10T20:01:39.367Z,99.90
2022-09-10T20:04:09.691Z,99.90
2022-09-10T20:06:38.832Z,99.90
2022-09-10T20:09:09.939Z,99.90
2022-09-10T20:11:38.642Z,99.90
2022-09-10T20:14:08.873Z,99.90
2022-09-10T20:16:38.694Z,99.90
2022-09-10T20:19:07.837Z,99.90
2022-09-10T20:21:37.055Z,99.90
2022-09-10T20:24:08.571Z,99.90
2022-09-10T20:26:39.114Z,99.90
2022-09-10T20:29:11.375Z,99.90
2022-09-10T20:31:41.215Z,99.90
2022-09-10T20:34:12.514Z,99.90
2022-09-10T20:36:42.723Z,99.90
2022-09-10T20:39:14.134Z,99.90
2022-09-10T20:41:42.629Z,99.90
2022-09-10T20:44:12.865Z,99.90
2022-09-10T20:46:41.609Z,99.90
2022-09-10T20:49:12.155Z,99.90
2022-09-10T20:51:41.553Z,99.90
2022-09-10T20:54:13.926Z,99.90
2022-09-10T20:56:42.760Z,99.90
2022-09-10T20:59:14.693Z,99.90
2022-09-10T21:01:46.278Z,99.90
2022-09-10T21:04:15.068Z,99.90
2022-09-10T21:06:43.322Z,99.90
2022-09-10T21:09:13.062Z,99.90
2022-09-10T21:11:41.334Z,99.90
2022-09-10T21:14:10.187Z,99.90
2022-09-10T21:16:40.019Z,99.90
2022-09-10T21:19:10.973Z,99.90
2022-09-10T21:21:40.605Z,99.90
2022-09-10T21:24:12.545Z,99.90
2022-09-10T21:26:43.378Z,99.90
2022-09-10T21:29:14.339Z,99.90
2022-09-10T21:31:42.694Z,99.90
2022-09-10T21:34:10.951Z,99.90
2022-09-10T21:36:41.072Z,99.90
2022-09-10T21:39:14.247Z,99.90
2022-09-10T21:41:46.005Z,99.90
2022-09-10T21:44:15.738Z,99.90
2022-09-10T21:46:44.897Z,99.90
2022-09-10T21:49:13.403Z,99.90
2022-09-10T21:51:42.204Z,99.90
2022-09-10T21:54:14.241Z,99.90
2022-09-10T21:56:43.771Z,99.90
2022-09-10T21:59:13.524Z,99.90
2022-09-10T22:01:43.766Z,99.90
2022-09-10T22:04:12.798Z,99.90
2022-09-10T22:06:41.047Z,99.90
2022-09-10T22:09:12.438Z,99.90
2022-09-10T22:11:43.000Z,99.90
2022-09-10T22:14:16.090Z,99.90
2022-09-10T22:16:45.484Z,99.90
2022-09-10T22:19:16.702Z,99.90
2022-09-10T22:21:45.007Z,99.90
2022-09-10T22:24:14.884Z,99.90
2022-09-10T22:26:45.054Z,99.90
2022-09-10T22:29:17.451Z,99.90
2022-09-10T22:31:45.798Z,99.90
2022-09-10T22:34:15.860Z,99.90
2022-09-10T22:36:45.836Z,99.90
2022-09-10T22:39:15.708Z,99.90
2022-09-10T22:41:44.739Z,99.90
2022-09-10T22:44:14.745Z,99.90
2022-09-10T22:46:43.116Z,99.90
2022-09-10T22:49:11.559Z,99.90
2022-09-10T22:51:41.143Z,99.90
2022-09-10T22:54:10.666Z,99.90
2022-09-10T22:56:39.529Z,99.90
2022-09-10T22:59:08.693Z,99.90
2022-09-10T23:01:39.081Z,99.90
2022-09-10T23:04:09.469Z,99.90
2022-09-10T23:06:39.473Z,99.90
2022-09-10T23:09:10.169Z,99.90
2022-09-10T23:11:40.467Z,99.90
2022-09-10T23:14:11.546Z,99.90
2022-09-10T23:16:42.979Z,99.90
2022-09-10T23:19:15.685Z,99.90
2022-09-10T23:21:48.629Z,99.90
2022-09-10T23:24:22.304Z,99.90
2022-09-10T23:26:52.703Z,99.90
2022-09-10T23:29:23.910Z,99.90
2022-09-10T23:31:56.224Z,99.90
2022-09-10T23:34:26.589Z,99.90
2022-09-10T23:36:56.342Z,99.90
2022-09-10T23:39:25.979Z,99.90
2022-09-10T23:41:56.715Z,99.90
2022-09-10T23:44:25.065Z,99.90
2022-09-10T23:46:55.523Z,99.90
2022-09-10T23:49:24.665Z,99.90
2022-09-10T23:51:52.940Z,99.90
2022-09-10T23:54:21.130Z,99.90
2022-09-10T23:56:49.267Z,99.90
2022-09-10T23:59:17.971Z,99.90
